createdAt,value
2023-02-18T00:03:35.698Z,1.30
2023-02-18T00:08:39.041Z,1.70
2023-02-18T00:13:42.456Z,1.30
2023-02-18T00:18:45.597Z,0.90
2023-02-18T00:23:48.688Z,1.60
2023-02-18T00:28:53.147Z,1.70
2023-02-18T00:33:58.675Z,0.90
2023-02-18T00:39:05.593Z,1.50
2023-02-18T00:44:09.165Z,1.40
2023-02-18T00:49:12.096Z,1.40
2023-02-18T00:54:15.084Z,1.30
2023-02-18T00:59:18.088Z,1.50
2023-02-18T01:04:21.083Z,1.80
2023-02-18T01:09:25.874Z,1.30
2023-02-18T01:14:28.915Z,1.50
2023-02-18T01:19:32.276Z,1.90
2023-02-18T01:24:35.290Z,1.20
2023-02-18T01:29:38.177Z,1.50
2023-02-18T01:34:41.317Z,1.40
2023-02-18T01:39:44.210Z,2.20
2023-02-18T01:44:49.694Z,1.20
2023-02-18T01:49:54.055Z,1.40
2023-02-18T01:54:58.060Z,1.90
2023-02-18T02:00:13.219Z,1.60
2023-02-18T02:05:18.347Z,1.60
2023-02-18T02:10:21.645Z,1.40
2023-02-18T02:15:49.258Z,2.20
2023-02-18T02:21:19.894Z,1.60
2023-02-18T02:27:14.228Z,1.60
2023-02-18T02:32:42.010Z,1.50
2023-02-18T02:38:09.090Z,1.60
2023-02-18T02:43:33.012Z,1.10
2023-02-18T02:48:50.708Z,1.00
2023-02-18T02:53:54.077Z,1.70
2023-02-18T02:59:06.456Z,1.40
2023-02-18T03:04:43.617Z,1.10
2023-02-18T03:09:58.546Z,1.10
2023-02-18T03:15:12.237Z,1.90
2023-02-18T03:20:34.447Z,1.40
2023-02-18T03:25:40.390Z,1.60
2023-02-18T03:30:57.152Z,1.10
2023-02-18T03:36:01.264Z,1.60
2023-02-18T03:41:05.776Z,1.90
2023-02-18T03:46:09.181Z,1.60
2023-02-18T03:51:12.504Z,1.10
2023-02-18T03:56:16.262Z,1.10
2023-02-18T04:01:19.429Z,2.00
2023-02-18T04:06:26.425Z,1.50
2023-02-18T04:11:29.663Z,1.60
2023-02-18T04:16:35.795Z,1.20
2023-02-18T04:21:38.957Z,1.30
2023-02-18T04:26:44.442Z,1.10
2023-02-18T04:31:50.404Z,1.80
2023-02-18T04:36:53.441Z,1.00
2023-02-18T04:41:59.214Z,1.10
2023-02-18T04:47:03.676Z,1.30
2023-02-18T04:52:06.717Z,1.40
2023-02-18T04:57:09.939Z,1.30
2023-02-18T05:02:13.218Z,1.30
2023-02-18T05:07:16.460Z,1.30
2023-02-18T05:12:24.458Z,1.40
2023-02-18T05:17:27.605Z,1.30
2023-02-18T05:22:33.687Z,2.50
2023-02-18T05:27:37.077Z,1.30
2023-02-18T05:32:40.172Z,1.20
2023-02-18T05:37:45.474Z,1.00
2023-02-18T05:42:51.193Z,1.60
2023-02-18T05:47:57.132Z,1.70
2023-02-18T05:53:00.127Z,1.50
2023-02-18T05:58:06.249Z,1.40
2023-02-18T06:03:09.145Z,1.80
2023-02-18T06:08:12.244Z,2.10
2023-02-18T06:13:18.854Z,1.70
2023-02-18T06:18:22.413Z,1.70
2023-02-18T06:23:25.462Z,1.50
2023-02-18T06:28:30.610Z,1.50
2023-02-18T06:33:36.185Z,1.50
2023-02-18T06:38:45.476Z,1.30
2023-02-18T06:43:48.421Z,2.40
2023-02-18T06:48:52.126Z,1.20
2023-02-18T06:53:55.065Z,1.40
2023-02-18T06:58:58.105Z,1.60
2023-02-18T07:04:02.055Z,1.60
2023-02-18T07:09:06.172Z,1.50
2023-02-18T07:14:11.899Z,1.30
2023-02-18T07:19:17.815Z,1.50
2023-02-18T07:24:20.759Z,2.50
2023-02-18T07:29:23.823Z,2.20
2023-02-18T07:34:26.848Z,2.20
2023-02-18T07:39:43.976Z,1.20
2023-02-18T07:44:47.062Z,2.00
2023-02-18T07:49:50.040Z,2.70
2023-02-18T07:54:53.007Z,2.10
2023-02-18T07:59:55.883Z,1.90
2023-02-18T08:04:58.834Z,1.30
2023-02-18T08:10:01.773Z,1.50
2023-02-18T08:15:05.171Z,1.40
2023-02-18T08:20:10.232Z,1.50
2023-02-18T08:25:27.533Z,1.30
2023-02-18T08:30:32.656Z,1.70
2023-02-18T08:35:35.837Z,2.30
2023-02-18T08:40:38.849Z,2.10
2023-02-18T08:45:44.246Z,1.90
2023-02-18T08:50:48.601Z,1.70
2023-02-18T08:55:52.041Z,1.80
2023-02-18T09:00:55.232Z,1.70
2023-02-18T09:06:00.000Z,2.50
2023-02-18T09:11:05.133Z,2.40
2023-02-18T09:16:14.077Z,1.20
2023-02-18T09:21:20.836Z,2.00
2023-02-18T09:26:25.261Z,1.90
2023-02-18T09:31:29.307Z,4.00
2023-02-18T09:36:33.114Z,2.10
2023-02-18T09:41:44.536Z,2.10
2023-02-18T09:47:00.912Z,2.30
2023-02-18T09:52:24.100Z,2.10
2023-02-18T09:57:41.251Z,2.10
2023-02-18T10:03:04.505Z,1.50
2023-02-18T10:08:23.298Z,3.00
2023-02-18T10:13:33.157Z,2.50
2023-02-18T10:18:43.180Z,2.10
2023-02-18T10:24:11.215Z,2.00
2023-02-18T10:29:21.525Z,1.90
2023-02-18T10:35:16.983Z,2.50
2023-02-18T10:41:12.024Z,2.00
2023-02-18T10:46:51.251Z,2.10
2023-02-18T10:51:59.532Z,2.00
2023-02-18T10:57:04.896Z,1.30
2023-02-18T11:02:18.435Z,1.20
2023-02-18T11:07:29.747Z,2.20
2023-02-18T11:12:47.555Z,1.30
2023-02-18T11:17:55.918Z,1.70
2023-02-18T11:23:22.182Z,2.80
2023-02-18T11:29:01.089Z,2.00
2023-02-18T11:34:05.256Z,1.70
2023-02-18T11:39:28.429Z,2.50
2023-02-18T11:44:53.056Z,1.60
2023-02-18T11:50:09.544Z,1.50
2023-02-18T11:55:28.335Z,1.40
2023-02-18T12:00:53.419Z,2.40
2023-02-18T12:06:02.970Z,2.10
2023-02-18T12:11:27.379Z,1.50
2023-02-18T12:16:56.729Z,2.30
2023-02-18T12:22:16.923Z,1.80
2023-02-18T12:27:50.590Z,3.60
2023-02-18T12:33:37.161Z,1.80
2023-02-18T12:38:49.284Z,3.00
2023-02-18T12:44:29.330Z,2.60
2023-02-18T12:49:34.903Z,2.30
2023-02-18T12:55:15.785Z,2.80
2023-02-18T13:00:59.392Z,2.10
2023-02-18T13:06:39.596Z,2.50
2023-02-18T13:12:14.138Z,2.00
2023-02-18T13:17:19.785Z,2.60
2023-02-18T13:22:28.286Z,2.40
2023-02-18T13:27:48.446Z,2.20
2023-02-18T13:33:07.110Z,3.10
2023-02-18T13:38:52.118Z,3.30
2023-02-18T13:43:55.244Z,1.90
2023-02-18T13:49:00.908Z,2.60
2023-02-18T13:54:12.117Z,1.50
2023-02-18T13:59:31.048Z,1.10
2023-02-18T14:04:43.060Z,3.00
2023-02-18T14:09:47.103Z,2.20
2023-02-18T14:14:52.216Z,1.90
2023-02-18T14:20:20.680Z,2.00
2023-02-18T14:25:41.553Z,1.70
2023-02-18T14:30:45.185Z,2.50
2023-02-18T14:36:20.813Z,4.70
2023-02-18T14:41:55.521Z,3.10
2023-02-18T14:47:24.143Z,3.60
2023-02-18T14:52:48.702Z,1.80
2023-02-18T14:58:02.086Z,2.90
2023-02-18T15:03:13.620Z,2.50
2023-02-18T15:08:22.494Z,1.90
2023-02-18T15:13:35.132Z,2.10
2023-02-18T15:18:43.073Z,1.80
2023-02-18T15:23:47.394Z,2.50
2023-02-18T15:29:04.304Z,2.80
2023-02-18T15:34:40.375Z,4.00
2023-02-18T15:39:45.573Z,3.50
2023-02-18T15:44:57.357Z,2.70
2023-02-18T15:50:02.962Z,3.00
2023-02-18T15:55:24.699Z,3.40
2023-02-18T16:00:36.972Z,1.60
2023-02-18T16:05:43.538Z,3.00
2023-02-18T16:11:06.891Z,5.20
2023-02-18T16:16:33.662Z,3.20
2023-02-18T16:21:44.755Z,3.10
2023-02-18T16:26:51.269Z,9.00
2023-02-18T16:31:54.515Z,5.80
2023-02-18T16:37:16.549Z,4.60
2023-02-18T16:42:19.571Z,7.00
2023-02-18T16:47:22.718Z,6.20
2023-02-18T16:52:25.702Z,3.90
2023-02-18T16:57:28.774Z,17.60
2023-02-18T17:02:32.443Z,17.00
2023-02-18T17:07:37.245Z,8.00
2023-02-18T17:12:42.743Z,5.60
2023-02-18T17:17:45.821Z,10.50
2023-02-18T17:22:49.289Z,6.40
2023-02-18T17:27:52.240Z,8.00
2023-02-18T17:32:55.424Z,2.60
2023-02-18T17:37:58.431Z,2.50
2023-02-18T17:43:01.370Z,9.90
2023-02-18T17:48:04.877Z,2.80
2023-02-18T17:53:07.990Z,2.80
2023-02-18T17:58:13.422Z,3.30
2023-02-18T18:03:17.504Z,3.20
2023-02-18T18:08:20.684Z,3.30
2023-02-18T18:13:32.388Z,2.30
2023-02-18T18:18:37.122Z,2.60
2023-02-18T18:23:40.052Z,2.30
2023-02-18T18:28:43.062Z,1.60
2023-02-18T18:33:50.535Z,2.90
2023-02-18T18:38:53.619Z,2.50
2023-02-18T18:43:56.570Z,3.00
2023-02-18T18:48:59.662Z,2.30
2023-02-18T18:54:02.634Z,2.30
2023-02-18T18:59:05.581Z,3.20
2023-02-18T19:04:08.471Z,2.30
2023-02-18T19:09:11.567Z,1.70
2023-02-18T19:14:14.792Z,2.30
2023-02-18T19:19:20.315Z,2.20
2023-02-18T19:24:23.236Z,4.60
2023-02-18T19:29:26.231Z,1.90
2023-02-18T19:34:29.133Z,2.10
2023-02-18T19:39:32.207Z,2.20
2023-02-18T19:44:35.279Z,3.00
2023-02-18T19:49:38.277Z,2.80
2023-02-18T19:54:41.332Z,2.10
2023-02-18T19:59:44.883Z,2.00
2023-02-18T20:04:49.613Z,2.30
2023-02-18T20:09:53.265Z,3.20
2023-02-18T20:14:56.274Z,2.50
2023-02-18T20:19:59.196Z,2.60
2023-02-18T20:25:02.461Z,2.10
2023-02-18T20:30:07.556Z,1.80
2023-02-18T20:35:10.497Z,3.10
2023-02-18T20:40:13.563Z,1.80
2023-02-18T20:45:17.025Z,1.50
2023-02-18T20:50:21.821Z,2.20
2023-02-18T20:55:25.197Z,2.00
2023-02-18T21:00:28.141Z,2.60
2023-02-18T21:05:31.145Z,2.30
2023-02-18T21:10:34.168Z,2.50
2023-02-18T21:15:38.439Z,1.80
2023-02-18T21:20:42.704Z,1.70
2023-02-18T21:25:46.238Z,1.70
2023-02-18T21:30:49.326Z,1.80
2023-02-18T21:35:52.728Z,1.90
2023-02-18T21:40:55.886Z,2.00
2023-02-18T21:46:14.971Z,1.60
2023-02-18T21:51:36.657Z,1.80
2023-02-18T21:56:39.678Z,2.30
2023-02-18T22:01:43.087Z,2.30
2023-02-18T22:06:46.717Z,2.40
2023-02-18T22:11:49.770Z,1.70
2023-02-18T22:16:52.722Z,4.60
2023-02-18T22:21:55.952Z,3.40
2023-02-18T22:27:01.715Z,2.40
2023-02-18T22:32:05.286Z,4.30
2023-02-18T22:37:13.439Z,4.00
2023-02-18T22:42:17.045Z,1.50
2023-02-18T22:47:20.005Z,2.30
2023-02-18T22:52:23.003Z,3.90
2023-02-18T22:57:26.085Z,3.20
2023-02-18T23:02:29.071Z,2.00
2023-02-18T23:07:32.082Z,4.50
2023-02-18T23:12:35.019Z,2.10
2023-02-18T23:17:37.979Z,2.50
2023-02-18T23:22:42.104Z,2.10
2023-02-18T23:27:45.004Z,2.00
2023-02-18T23:32:47.928Z,2.70
2023-02-18T23:38:06.110Z,1.50
2023-02-18T23:43:09.063Z,1.60
2023-02-18T23:48:11.951Z,1.80
2023-02-18T23:53:14.881Z,1.80
2023-02-18T23:58:17.927Z,1.70
